Taitung Airport
RCFN : now visible

Airfield :











YOU CAN JOIN US ON...

 
LOGIN :

Register | Disclaimer

   EN    FR    IT 

 









Legend :    VFR   Marginal VFR   IFR   Intensive IFR   Very Intensive IFR
Visi :
Ceiling :
>= 8 km
>= 3000ft
5 to 8 km
1000 to 3000 ft
1500m to 5 km
500 to 1000 ft
800 to 1500m
200 to 500 ft
< 800m
< 200 ft
Symbols :   Thunderstorms  Fog  Heavy snow  Heavy precipitations  Wind > 20 kt







- Airport Elevation : 143 ft
- IATA code : TTT


RCFN - Taitung

METAR N/A
TAF TAF RCFN
Valid from the 19 at 18:00 until the 20 at 18:00 UTC


191700Z 1918/2018 35005KT 9999 FEW015 BKN032
TEMPO 1922/2001 VRB03KT 4500 SHRA SCT010 BKN017 BKN040
TEMPO 2001/2005 06008KT
TEMPO 2005/2010 18008KT 4000 TSRA SCT010 FEW015CB BKN018 BKN035
RCAA FIR / Asia



MET'MAP, your aeronautical weather chart ! - Copyright ORBIFLY December 2007 - Disclaimer

ORBIFLY MET'MAP TEAM :

Programming & Development : Alexandra Zaïnal
Concept & Development : Baudouin d'Aumeries
Co-Development & Prog : Marc-Olivier Méhu
Technical & hardware support : Manuel Goepfert

Contact : metmap@orbifly.com




SOURCES & CREDITS :

   NOAA       Earth
Advisory